createdAt,value
2023-05-19T00:00:10.576Z,99.90
2023-05-19T00:02:44.121Z,99.90
2023-05-19T00:05:15.084Z,99.90
2023-05-19T00:07:47.139Z,99.90
2023-05-19T00:10:16.890Z,99.90
2023-05-19T00:12:46.146Z,99.90
2023-05-19T00:15:15.378Z,99.90
2023-05-19T00:17:45.438Z,99.90
2023-05-19T00:20:14.527Z,99.90
2023-05-19T00:22:44.071Z,99.90
2023-05-19T00:25:12.294Z,99.90
2023-05-19T00:27:40.458Z,99.90
2023-05-19T00:30:10.232Z,99.90
2023-05-19T00:32:40.902Z,99.90
2023-05-19T00:35:11.475Z,99.90
2023-05-19T00:37:39.610Z,99.90
2023-05-19T00:40:09.253Z,99.90
2023-05-19T00:42:37.433Z,99.90
2023-05-19T00:45:06.382Z,99.90
2023-05-19T00:47:35.437Z,99.90
2023-05-19T00:50:03.721Z,99.90
2023-05-19T00:52:33.353Z,99.90
2023-05-19T00:55:01.811Z,99.90
2023-05-19T00:57:30.077Z,99.90
2023-05-19T00:59:58.296Z,99.90
2023-05-19T01:02:29.807Z,99.90
2023-05-19T01:04:58.986Z,99.90
2023-05-19T01:07:27.348Z,99.90
2023-05-19T01:09:57.781Z,99.90
2023-05-19T01:12:26.464Z,99.90
2023-05-19T01:14:54.636Z,99.90
2023-05-19T01:17:30.552Z,99.90
2023-05-19T01:20:08.001Z,99.90
2023-05-19T01:23:03.008Z,99.90
2023-05-19T01:26:14.199Z,99.90
2023-05-19T01:29:00.139Z,99.90
2023-05-19T01:31:30.029Z,99.90
2023-05-19T01:33:59.568Z,99.90
2023-05-19T01:36:28.868Z,99.90
2023-05-19T01:39:00.010Z,99.90
2023-05-19T01:41:29.531Z,99.90
2023-05-19T01:43:59.187Z,99.90
2023-05-19T01:46:27.433Z,99.90
2023-05-19T01:48:59.824Z,99.90
2023-05-19T01:51:28.200Z,99.90
2023-05-19T01:53:56.432Z,99.90
2023-05-19T01:56:32.622Z,99.90
2023-05-19T01:59:08.310Z,99.90
2023-05-19T02:01:45.298Z,99.90
2023-05-19T02:04:21.626Z,99.90
2023-05-19T02:06:56.981Z,99.90
2023-05-19T02:09:31.281Z,99.90
2023-05-19T02:12:04.819Z,99.90
2023-05-19T02:14:41.132Z,99.90
2023-05-19T02:17:11.815Z,99.90
2023-05-19T02:19:41.401Z,99.90
2023-05-19T02:22:09.548Z,99.90
2023-05-19T02:24:37.818Z,99.90
2023-05-19T02:27:06.566Z,99.90
2023-05-19T02:29:35.500Z,99.90
2023-05-19T02:32:03.643Z,99.90
2023-05-19T02:34:31.748Z,99.90
2023-05-19T02:37:01.296Z,99.90
2023-05-19T02:39:34.869Z,99.90
2023-05-19T02:42:03.339Z,99.90
2023-05-19T02:44:31.472Z,99.90
2023-05-19T02:46:59.574Z,99.90
2023-05-19T02:49:27.703Z,99.90
2023-05-19T02:51:55.844Z,99.90
2023-05-19T02:54:26.107Z,99.90
2023-05-19T02:56:54.253Z,99.90
2023-05-19T02:59:25.414Z,99.90
2023-05-19T03:01:56.722Z,99.90
2023-05-19T03:04:27.490Z,99.90
2023-05-19T03:06:55.694Z,99.90
2023-05-19T03:09:25.315Z,99.90
2023-05-19T03:11:53.857Z,99.90
2023-05-19T03:14:24.055Z,99.90
2023-05-19T03:16:52.858Z,99.90
2023-05-19T03:19:21.215Z,99.90
2023-05-19T03:21:49.707Z,99.90
2023-05-19T03:24:18.090Z,99.90
2023-05-19T03:26:47.891Z,99.90
2023-05-19T03:29:16.411Z,99.90
2023-05-19T03:31:44.796Z,99.90
2023-05-19T03:34:14.742Z,99.90
2023-05-19T03:36:43.081Z,99.90
2023-05-19T03:39:15.416Z,99.90
2023-05-19T03:41:43.837Z,99.90
2023-05-19T03:44:13.407Z,99.90
2023-05-19T03:46:42.024Z,99.90
2023-05-19T03:49:28.497Z,99.90
2023-05-19T03:51:59.182Z,99.90
2023-05-19T03:54:59.492Z,99.90
2023-05-19T03:57:29.662Z,99.90
2023-05-19T03:59:59.162Z,99.90
2023-05-19T04:02:28.039Z,99.90
2023-05-19T04:04:56.659Z,99.90
2023-05-19T04:07:24.859Z,99.90
2023-05-19T04:09:53.034Z,99.90
2023-05-19T04:12:21.825Z,99.90
2023-05-19T04:14:49.898Z,99.90
2023-05-19T04:17:19.311Z,99.90
2023-05-19T04:19:47.389Z,99.90
2023-05-19T04:22:15.732Z,99.90
2023-05-19T04:24:43.793Z,99.90
2023-05-19T04:27:12.782Z,99.90
2023-05-19T04:29:41.788Z,99.90
2023-05-19T04:32:10.699Z,99.90
2023-05-19T04:34:45.088Z,99.90
2023-05-19T04:37:17.266Z,99.90
2023-05-19T04:39:46.461Z,99.90
2023-05-19T04:42:19.529Z,99.90
2023-05-19T04:44:49.315Z,99.90
2023-05-19T04:47:18.105Z,99.90
2023-05-19T04:49:48.246Z,99.90
2023-05-19T04:52:21.682Z,99.90
2023-05-19T04:54:49.980Z,99.90
2023-05-19T04:57:18.311Z,99.90
2023-05-19T04:59:47.232Z,99.90
2023-05-19T05:02:16.828Z,99.90
2023-05-19T05:04:46.610Z,99.90
2023-05-19T05:07:16.550Z,99.90
2023-05-19T05:09:44.774Z,97.30
2023-05-19T05:12:15.411Z,99.30
2023-05-19T05:14:44.038Z,97.50
2023-05-19T05:17:13.759Z,95.80
2023-05-19T05:19:43.766Z,97.50
2023-05-19T05:22:12.515Z,97.70
2023-05-19T05:24:43.665Z,97.00
2023-05-19T05:27:12.039Z,97.50
2023-05-19T05:29:41.139Z,99.90
2023-05-19T05:32:10.858Z,99.90
2023-05-19T05:34:41.039Z,99.90
2023-05-19T05:37:09.260Z,99.90
2023-05-19T05:39:38.008Z,99.90
2023-05-19T05:42:09.130Z,99.90
2023-05-19T05:44:37.449Z,99.90
2023-05-19T05:47:07.800Z,99.90
2023-05-19T05:49:38.039Z,99.90
2023-05-19T05:52:07.685Z,99.90
2023-05-19T05:54:47.356Z,99.90
2023-05-19T05:57:20.339Z,99.90
2023-05-19T05:59:48.773Z,98.30
2023-05-19T06:02:17.837Z,92.00
2023-05-19T06:04:46.002Z,92.10
2023-05-19T06:07:14.286Z,92.20
2023-05-19T06:09:42.524Z,91.20
2023-05-19T06:12:11.545Z,92.90
2023-05-19T06:14:46.652Z,93.10
2023-05-19T06:17:26.272Z,87.50
2023-05-19T06:19:55.391Z,80.00
2023-05-19T06:22:23.565Z,78.40
2023-05-19T06:24:51.948Z,77.90
2023-05-19T06:27:21.085Z,77.40
2023-05-19T06:29:51.848Z,74.40
2023-05-19T06:32:21.663Z,70.10
2023-05-19T06:34:54.013Z,68.40
2023-05-19T06:37:23.776Z,69.00
2023-05-19T06:39:53.216Z,72.00
2023-05-19T06:42:25.171Z,70.60
2023-05-19T06:45:11.572Z,70.40
2023-05-19T06:47:41.382Z,68.00
2023-05-19T06:50:11.153Z,68.70
2023-05-19T06:52:42.595Z,70.20
2023-05-19T06:55:11.117Z,69.60
2023-05-19T06:57:41.339Z,67.80
2023-05-19T07:00:14.492Z,66.40
2023-05-19T07:02:48.211Z,69.40
2023-05-19T07:05:16.936Z,70.20
2023-05-19T07:07:49.893Z,69.10
2023-05-19T07:10:22.384Z,70.60
2023-05-19T07:12:51.456Z,69.10
2023-05-19T07:15:23.185Z,69.40
2023-05-19T07:17:51.666Z,70.00
2023-05-19T07:20:19.939Z,68.20
2023-05-19T07:22:50.633Z,68.50
2023-05-19T07:25:18.861Z,68.60
2023-05-19T07:27:48.658Z,70.00
2023-05-19T07:30:16.865Z,69.10
2023-05-19T07:32:46.352Z,69.10
2023-05-19T07:35:14.554Z,68.60
2023-05-19T07:37:42.820Z,65.10
2023-05-19T07:40:11.217Z,66.00
2023-05-19T07:42:39.425Z,60.50
2023-05-19T07:45:08.468Z,64.90
2023-05-19T07:47:36.709Z,66.50
2023-05-19T07:50:07.189Z,66.50
2023-05-19T07:52:35.355Z,62.20
2023-05-19T07:55:03.556Z,58.90
2023-05-19T07:57:32.388Z,58.30
2023-05-19T08:00:00.557Z,58.00
2023-05-19T08:02:28.988Z,59.50
2023-05-19T08:04:57.332Z,59.10
2023-05-19T08:07:26.861Z,57.70
2023-05-19T08:09:55.126Z,59.80
2023-05-19T08:12:23.189Z,60.60
2023-05-19T08:14:51.239Z,63.10
2023-05-19T08:17:19.411Z,65.40
2023-05-19T08:19:47.558Z,64.50
2023-05-19T08:22:18.436Z,65.30
2023-05-19T08:24:49.678Z,64.40
2023-05-19T08:27:17.852Z,65.00
2023-05-19T08:29:46.019Z,64.50
2023-05-19T08:32:14.352Z,65.50
2023-05-19T08:34:42.552Z,66.20
2023-05-19T08:37:10.973Z,67.70
2023-05-19T08:39:39.248Z,67.70
2023-05-19T08:42:09.953Z,67.70
2023-05-19T08:44:39.928Z,66.60
2023-05-19T08:47:13.763Z,66.50
2023-05-19T08:49:45.650Z,66.80
2023-05-19T08:52:23.344Z,67.50
2023-05-19T08:54:55.817Z,67.50
2023-05-19T08:57:26.512Z,68.60
2023-05-19T08:59:56.725Z,68.20
2023-05-19T09:02:25.372Z,67.70
2023-05-19T09:04:54.366Z,65.50
2023-05-19T09:07:25.494Z,65.70
2023-05-19T09:09:53.672Z,62.70
2023-05-19T09:12:22.168Z,62.70
2023-05-19T09:14:54.515Z,60.20
2023-05-19T09:17:22.836Z,60.50
2023-05-19T09:19:51.292Z,61.30
2023-05-19T09:22:20.598Z,59.50
2023-05-19T09:24:49.042Z,59.50
2023-05-19T09:27:23.517Z,60.30
2023-05-19T09:29:53.021Z,59.70
2023-05-19T09:32:28.580Z,59.00
2023-05-19T09:34:57.128Z,59.60
2023-05-19T09:37:25.823Z,58.70
2023-05-19T09:39:55.170Z,58.50
2023-05-19T09:42:27.737Z,59.40
2023-05-19T09:45:02.564Z,59.70
2023-05-19T09:47:36.102Z,58.60
2023-05-19T09:50:06.551Z,59.30
2023-05-19T09:52:38.679Z,59.00
2023-05-19T09:55:10.660Z,59.90
2023-05-19T09:57:40.186Z,60.20
2023-05-19T10:00:15.350Z,59.20
2023-05-19T10:02:45.188Z,56.70
2023-05-19T10:05:17.343Z,57.50
2023-05-19T10:07:48.476Z,57.50
2023-05-19T10:10:17.206Z,55.30
2023-05-19T10:12:45.792Z,57.10
2023-05-19T10:15:22.193Z,55.80
2023-05-19T10:17:52.104Z,56.60
2023-05-19T10:20:20.321Z,56.30
2023-05-19T10:22:48.647Z,56.40
2023-05-19T10:25:20.094Z,56.60
2023-05-19T10:27:53.146Z,56.30
2023-05-19T10:30:28.228Z,55.50
2023-05-19T10:32:58.317Z,54.50
2023-05-19T10:35:57.992Z,55.10
2023-05-19T10:38:33.503Z,53.50
2023-05-19T10:41:06.896Z,54.30
2023-05-19T10:43:55.409Z,54.10
2023-05-19T10:46:27.520Z,54.10
2023-05-19T10:48:56.012Z,53.50
2023-05-19T10:51:31.494Z,54.10
2023-05-19T10:53:59.921Z,55.00
2023-05-19T10:56:33.815Z,55.50
2023-05-19T10:59:02.229Z,55.90
2023-05-19T11:01:34.187Z,56.70
2023-05-19T11:04:07.484Z,55.40
2023-05-19T11:06:37.718Z,55.00
2023-05-19T11:09:13.781Z,55.10
2023-05-19T11:11:47.742Z,53.80
2023-05-19T11:14:17.988Z,52.10
2023-05-19T11:16:50.444Z,51.70
2023-05-19T11:19:26.859Z,51.20
2023-05-19T11:21:55.969Z,51.40
2023-05-19T11:24:41.478Z,51.50
2023-05-19T11:27:23.822Z,52.30
2023-05-19T11:29:52.290Z,52.30
2023-05-19T11:32:24.160Z,52.50
2023-05-19T11:34:53.221Z,53.60
2023-05-19T11:37:21.481Z,52.50
2023-05-19T11:39:50.240Z,52.20
2023-05-19T11:42:18.380Z,53.30
2023-05-19T11:44:46.804Z,52.90
2023-05-19T11:47:15.674Z,52.80
2023-05-19T11:49:46.650Z,52.30
2023-05-19T11:52:15.521Z,51.40
2023-05-19T11:54:43.632Z,51.80
2023-05-19T11:57:14.647Z,51.80
2023-05-19T11:59:45.586Z,52.00
2023-05-19T12:02:22.343Z,52.90
2023-05-19T12:04:52.548Z,53.20
2023-05-19T12:07:23.390Z,52.80
2023-05-19T12:09:52.840Z,53.80
2023-05-19T12:12:22.394Z,52.60
2023-05-19T12:14:52.625Z,51.50
2023-05-19T12:17:23.782Z,51.60
2023-05-19T12:19:53.450Z,50.90
2023-05-19T12:22:21.718Z,51.30
2023-05-19T12:24:51.671Z,50.80
2023-05-19T12:27:21.689Z,51.20
2023-05-19T12:29:53.222Z,51.50
2023-05-19T12:32:25.418Z,51.50
2023-05-19T12:34:57.101Z,52.60
2023-05-19T12:37:29.914Z,51.80
2023-05-19T12:39:58.535Z,51.90
2023-05-19T12:42:31.335Z,51.20
2023-05-19T12:45:02.940Z,52.30
2023-05-19T12:47:33.805Z,52.90
2023-05-19T12:50:09.138Z,53.10
2023-05-19T12:52:44.756Z,52.90
2023-05-19T12:55:14.133Z,53.60
2023-05-19T12:57:44.242Z,54.60
2023-05-19T13:00:20.822Z,55.10
2023-05-19T13:02:59.712Z,55.30
2023-05-19T13:05:30.713Z,53.10
2023-05-19T13:08:00.191Z,51.90
2023-05-19T13:10:29.437Z,52.50
2023-05-19T13:13:00.001Z,52.00
2023-05-19T13:15:31.731Z,51.60
2023-05-19T13:18:01.034Z,51.40
2023-05-19T13:20:31.084Z,50.10
2023-05-19T13:22:59.563Z,50.70
2023-05-19T13:25:28.223Z,50.70
2023-05-19T13:27:59.384Z,50.30
2023-05-19T13:30:28.068Z,50.60
2023-05-19T13:32:56.250Z,51.50
2023-05-19T13:35:24.610Z,50.90
2023-05-19T13:37:54.024Z,51.80
2023-05-19T13:40:23.848Z,53.10
2023-05-19T13:42:52.178Z,53.70
2023-05-19T13:45:20.315Z,53.00
2023-05-19T13:47:48.540Z,53.60
2023-05-19T13:50:16.648Z,54.50
2023-05-19T13:52:44.981Z,55.80
2023-05-19T13:55:14.548Z,56.20
2023-05-19T13:57:44.142Z,55.90
2023-05-19T14:00:13.185Z,55.90
2023-05-19T14:02:42.323Z,56.00
2023-05-19T14:05:10.708Z,56.20
2023-05-19T14:07:38.924Z,55.90
2023-05-19T14:10:08.552Z,55.10
2023-05-19T14:12:55.016Z,54.50
2023-05-19T14:15:26.262Z,55.50
2023-05-19T14:17:54.538Z,56.40
2023-05-19T14:20:22.806Z,55.60
2023-05-19T14:22:50.984Z,55.60
2023-05-19T14:25:19.549Z,54.40
2023-05-19T14:27:49.034Z,54.20
2023-05-19T14:30:17.203Z,54.00
2023-05-19T14:32:45.451Z,54.20
2023-05-19T14:35:13.542Z,55.10
2023-05-19T14:37:41.638Z,55.60
2023-05-19T14:40:10.732Z,56.40
2023-05-19T14:42:38.940Z,56.70
2023-05-19T14:45:10.654Z,56.80
2023-05-19T14:47:41.327Z,56.50
2023-05-19T14:50:09.887Z,56.30
2023-05-19T14:52:37.990Z,57.10
2023-05-19T14:55:06.761Z,57.00
2023-05-19T14:57:35.085Z,56.80
2023-05-19T15:00:03.188Z,56.30
2023-05-19T15:02:32.823Z,56.30
2023-05-19T15:05:01.176Z,56.20
2023-05-19T15:07:30.407Z,57.10
2023-05-19T15:10:01.729Z,58.30
2023-05-19T15:12:30.124Z,58.80
2023-05-19T15:14:58.488Z,58.70
2023-05-19T15:17:26.727Z,58.90
2023-05-19T15:19:56.675Z,58.70
2023-05-19T15:22:24.804Z,58.80
2023-05-19T15:24:52.896Z,58.90
2023-05-19T15:27:21.198Z,59.00
2023-05-19T15:29:49.249Z,58.30
2023-05-19T15:32:17.405Z,58.30
2023-05-19T15:34:45.693Z,58.60
2023-05-19T15:37:15.408Z,58.00
2023-05-19T15:39:43.704Z,57.90
2023-05-19T15:42:12.039Z,57.40
2023-05-19T15:44:40.288Z,57.10
2023-05-19T15:47:08.456Z,57.10
2023-05-19T15:49:36.540Z,57.30
2023-05-19T15:52:05.130Z,57.40
2023-05-19T15:54:34.604Z,58.10
2023-05-19T15:57:02.654Z,59.00
2023-05-19T15:59:31.122Z,59.30
2023-05-19T16:01:59.446Z,59.30
2023-05-19T16:04:27.626Z,59.20
2023-05-19T16:06:55.988Z,58.70
2023-05-19T16:09:24.121Z,58.80
2023-05-19T16:11:53.744Z,59.10
2023-05-19T16:14:22.612Z,60.20
2023-05-19T16:16:51.051Z,58.90
2023-05-19T16:19:21.922Z,58.40
2023-05-19T16:21:50.160Z,58.10
2023-05-19T16:24:18.376Z,57.70
2023-05-19T16:26:48.556Z,58.00
2023-05-19T16:29:18.054Z,57.30
2023-05-19T16:31:46.281Z,57.60
2023-05-19T16:34:14.576Z,57.90
2023-05-19T16:36:42.784Z,58.00
2023-05-19T16:39:10.893Z,58.40
2023-05-19T16:41:39.127Z,59.00
2023-05-19T16:44:08.386Z,59.00
2023-05-19T16:46:37.971Z,58.90
2023-05-19T16:49:07.317Z,57.90
2023-05-19T16:51:35.638Z,58.10
2023-05-19T16:54:04.110Z,58.50
2023-05-19T16:56:32.270Z,58.80
2023-05-19T16:59:00.471Z,59.40
2023-05-19T17:01:28.676Z,59.70
2023-05-19T17:03:58.284Z,60.00
2023-05-19T17:06:26.433Z,60.40
2023-05-19T17:08:54.695Z,60.40
2023-05-19T17:11:22.807Z,60.30
2023-05-19T17:13:50.977Z,60.60
2023-05-19T17:16:19.093Z,60.60
2023-05-19T17:18:48.117Z,60.90
2023-05-19T17:21:17.943Z,61.10
2023-05-19T17:23:46.530Z,61.40
2023-05-19T17:26:15.802Z,61.70
2023-05-19T17:28:44.028Z,62.10
2023-05-19T17:31:13.097Z,62.50
2023-05-19T17:33:41.954Z,62.60
2023-05-19T17:36:12.762Z,63.00
2023-05-19T17:38:42.462Z,62.90
2023-05-19T17:41:14.213Z,63.20
2023-05-19T17:43:42.890Z,63.30
2023-05-19T17:46:13.516Z,63.50
2023-05-19T17:48:41.771Z,63.30
2023-05-19T17:51:10.143Z,63.70
2023-05-19T17:53:38.872Z,63.60
2023-05-19T17:56:11.223Z,63.40
2023-05-19T17:58:41.250Z,63.00
2023-05-19T18:01:10.104Z,63.20
2023-05-19T18:03:38.810Z,63.40
2023-05-19T18:06:08.466Z,63.30
2023-05-19T18:08:38.482Z,64.40
2023-05-19T18:11:08.698Z,63.70
2023-05-19T18:13:37.561Z,64.30
2023-05-19T18:16:05.992Z,64.50
2023-05-19T18:18:34.481Z,64.60
2023-05-19T18:21:05.154Z,65.20
2023-05-19T18:23:33.395Z,65.70
2023-05-19T18:26:02.008Z,66.10
2023-05-19T18:28:31.513Z,66.50
2023-05-19T18:31:00.871Z,66.90
2023-05-19T18:33:31.048Z,67.50
2023-05-19T18:36:00.103Z,67.70
2023-05-19T18:38:28.622Z,68.10
2023-05-19T18:40:57.741Z,68.40
2023-05-19T18:43:25.969Z,69.00
2023-05-19T18:45:58.964Z,69.70
2023-05-19T18:48:27.539Z,70.40
2023-05-19T18:50:55.809Z,71.30
2023-05-19T18:53:24.004Z,72.20
2023-05-19T18:55:52.398Z,72.90
2023-05-19T18:58:20.576Z,73.70
2023-05-19T19:00:48.963Z,74.70
2023-05-19T19:03:19.615Z,75.70
2023-05-19T19:05:54.277Z,76.80
2023-05-19T19:08:24.665Z,77.20
2023-05-19T19:10:54.735Z,78.20
2023-05-19T19:13:23.367Z,79.10
2023-05-19T19:15:54.695Z,79.80
2023-05-19T19:18:26.043Z,80.80
2023-05-19T19:20:54.815Z,81.30
2023-05-19T19:23:22.998Z,82.20
2023-05-19T19:25:51.238Z,82.80
2023-05-19T19:28:19.413Z,83.40
2023-05-19T19:30:47.601Z,84.10
2023-05-19T19:33:16.034Z,84.90
2023-05-19T19:35:47.348Z,86.20
2023-05-19T19:38:15.724Z,86.60
2023-05-19T19:40:43.941Z,87.60
2023-05-19T19:43:12.490Z,88.30
2023-05-19T19:45:41.594Z,89.00
2023-05-19T19:48:09.934Z,90.10
2023-05-19T19:50:38.230Z,90.90
2023-05-19T19:53:08.828Z,91.10
2023-05-19T19:55:37.046Z,91.70
2023-05-19T19:58:05.195Z,92.40
2023-05-19T20:00:33.823Z,92.80
2023-05-19T20:03:05.548Z,93.50
2023-05-19T20:05:34.250Z,94.40
2023-05-19T20:08:02.418Z,94.80
2023-05-19T20:10:32.104Z,95.10
2023-05-19T20:13:00.323Z,96.00
2023-05-19T20:15:28.496Z,96.70
2023-05-19T20:17:56.744Z,97.30
2023-05-19T20:20:25.072Z,97.90
2023-05-19T20:22:53.303Z,98.00
2023-05-19T20:25:21.741Z,99.40
2023-05-19T20:27:51.362Z,99.90
2023-05-19T20:30:19.679Z,99.90
2023-05-19T20:32:47.840Z,99.90
2023-05-19T20:35:16.067Z,99.90
2023-05-19T20:37:49.289Z,99.90
2023-05-19T20:40:18.569Z,99.90
2023-05-19T20:42:50.635Z,99.90
2023-05-19T20:45:19.005Z,99.90
2023-05-19T20:47:47.278Z,99.90
2023-05-19T20:50:15.668Z,99.90
2023-05-19T20:52:43.806Z,99.90
2023-05-19T20:55:12.245Z,99.90
2023-05-19T20:57:40.464Z,99.90
2023-05-19T21:00:11.486Z,99.90
2023-05-19T21:02:39.714Z,99.90
2023-05-19T21:05:08.545Z,99.90
2023-05-19T21:07:39.247Z,99.90
2023-05-19T21:10:08.933Z,99.90
2023-05-19T21:12:37.145Z,99.90
2023-05-19T21:15:05.957Z,99.90
2023-05-19T21:17:35.657Z,99.90
2023-05-19T21:20:04.144Z,99.90
2023-05-19T21:22:32.463Z,99.90
2023-05-19T21:25:00.621Z,99.90
2023-05-19T21:27:28.806Z,99.90
2023-05-19T21:29:59.972Z,99.90
2023-05-19T21:32:30.279Z,99.90
2023-05-19T21:34:59.963Z,99.90
2023-05-19T21:37:28.215Z,99.90
2023-05-19T21:39:56.408Z,99.90
2023-05-19T21:42:24.880Z,99.90
2023-05-19T21:44:53.049Z,99.90
2023-05-19T21:47:21.203Z,99.90
2023-05-19T21:49:49.503Z,99.90
2023-05-19T21:52:19.538Z,99.90
2023-05-19T21:54:47.880Z,99.90
2023-05-19T21:57:16.058Z,99.90
2023-05-19T21:59:44.951Z,99.90
2023-05-19T22:02:13.800Z,99.90
2023-05-19T22:04:42.929Z,99.90
2023-05-19T22:07:11.059Z,99.90
2023-05-19T22:09:40.662Z,99.90
2023-05-19T22:12:09.397Z,99.90
2023-05-19T22:14:37.556Z,99.90
2023-05-19T22:17:06.275Z,99.90
2023-05-19T22:19:34.387Z,99.90
2023-05-19T22:22:13.170Z,99.90
2023-05-19T22:24:44.040Z,99.90
2023-05-19T22:27:12.229Z,99.90
2023-05-19T22:29:40.425Z,99.90
2023-05-19T22:32:12.052Z,99.90
2023-05-19T22:34:40.731Z,99.90
2023-05-19T22:37:09.031Z,99.90
2023-05-19T22:39:37.625Z,99.90
2023-05-19T22:42:07.639Z,99.90
2023-05-19T22:44:35.793Z,99.90
2023-05-19T22:47:04.044Z,99.90
2023-05-19T22:49:32.194Z,99.90
2023-05-19T22:52:03.033Z,99.90
2023-05-19T22:54:31.461Z,99.90
2023-05-19T22:56:59.635Z,99.90
2023-05-19T22:59:29.130Z,99.90
2023-05-19T23:01:57.269Z,99.90
2023-05-19T23:04:25.689Z,99.90
2023-05-19T23:06:56.109Z,99.90
2023-05-19T23:09:27.417Z,99.90
2023-05-19T23:11:57.910Z,99.90
2023-05-19T23:14:26.081Z,99.90
2023-05-19T23:16:55.924Z,99.90
2023-05-19T23:19:24.344Z,99.90
2023-05-19T23:21:52.641Z,99.90
2023-05-19T23:24:20.866Z,99.90
2023-05-19T23:26:48.986Z,99.90
2023-05-19T23:29:17.162Z,99.90
2023-05-19T23:31:45.388Z,99.90
2023-05-19T23:34:15.042Z,99.90
2023-05-19T23:36:43.154Z,99.90
2023-05-19T23:39:12.913Z,99.90
2023-05-19T23:41:41.014Z,99.90
2023-05-19T23:44:09.645Z,99.90
2023-05-19T23:46:37.951Z,99.90
2023-05-19T23:49:06.272Z,99.90
2023-05-19T23:51:38.676Z,99.90
2023-05-19T23:54:06.853Z,99.90
2023-05-19T23:56:34.930Z,99.90
2023-05-19T23:59:06.095Z,99.90
